sensor_id;sensor_type;location;lat;lon;timestamp;temperature;humidity
29201;DHT22;16244;51.956;12.980;2023-08-20T00:01:56;23.70;99.90
29201;DHT22;16244;51.956;12.980;2023-08-20T00:04:26;23.50;99.90
29201;DHT22;16244;51.956;12.980;2023-08-20T00:06:54;23.50;99.90
29201;DHT22;16244;51.956;12.980;2023-08-20T00:09:21;23.50;99.90
29201;DHT22;16244;51.956;12.980;2023-08-20T00:11:49;23.50;99.90
29201;DHT22;16244;51.956;12.980;2023-08-20T00:14:17;23.50;99.90
29201;DHT22;16244;51.956;12.980;2023-08-20T00:16:46;23.50;99.90
29201;DHT22;16244;51.956;12.980;2023-08-20T00:19:15;23.50;99.90
29201;DHT22;16244;51.956;12.980;2023-08-20T00:21:43;23.40;99.90
29201;DHT22;16244;51.956;12.980;2023-08-20T00:24:12;23.40;99.90
29201;DHT22;16244;51.956;12.980;2023-08-20T00:26:40;23.40;99.90
29201;DHT22;16244;51.956;12.980;2023-08-20T00:29:08;23.40;99.90
29201;DHT22;16244;51.956;12.980;2023-08-20T00:31:35;23.40;99.90
29201;DHT22;16244;51.956;12.980;2023-08-20T00:34:03;23.40;99.90
29201;DHT22;16244;51.956;12.980;2023-08-20T00:36:32;23.40;99.90
29201;DHT22;16244;51.956;12.980;2023-08-20T00:38:59;23.30;99.90
29201;DHT22;16244;51.956;12.980;2023-08-20T00:41:27;23.30;99.90
29201;DHT22;16244;51.956;12.980;2023-08-20T00:43:54;23.20;99.90
29201;DHT22;16244;51.956;12.980;2023-08-20T00:46:26;23.30;99.90
29201;DHT22;16244;51.956;12.980;2023-08-20T00:48:54;23.40;99.90
29201;DHT22;16244;51.956;12.980;2023-08-20T00:51:22;23.40;99.90
29201;DHT22;16244;51.956;12.980;2023-08-20T00:53:52;23.40;99.90
29201;DHT22;16244;51.956;12.980;2023-08-20T00:56:19;23.40;99.90
29201;DHT22;16244;51.956;12.980;2023-08-20T00:58:48;23.40;99.90
29201;DHT22;16244;51.956;12.980;2023-08-20T01:01:16;23.40;99.90
29201;DHT22;16244;51.956;12.980;2023-08-20T01:03:44;23.30;99.90
29201;DHT22;16244;51.956;12.980;2023-08-20T01:06:16;23.30;99.90
29201;DHT22;16244;51.956;12.980;2023-08-20T01:08:47;23.30;99.90
29201;DHT22;16244;51.956;12.980;2023-08-20T01:11:24;23.30;99.90
29201;DHT22;16244;51.956;12.980;2023-08-20T01:13:54;23.20;99.90
29201;DHT22;16244;51.956;12.980;2023-08-20T01:16:22;23.20;99.90
29201;DHT22;16244;51.956;12.980;2023-08-20T01:18:49;23.20;99.90
29201;DHT22;16244;51.956;12.980;2023-08-20T01:21:26;23.20;99.90
29201;DHT22;16244;51.956;12.980;2023-08-20T01:24:05;23.10;99.90
29201;DHT22;16244;51.956;12.980;2023-08-20T01:27:00;23.10;99.90
29201;DHT22;16244;51.956;12.980;2023-08-20T01:29:33;23.00;99.90
29201;DHT22;16244;51.956;12.980;2023-08-20T01:32:02;23.00;99.90
29201;DHT22;16244;51.956;12.980;2023-08-20T01:34:31;23.00;99.90
29201;DHT22;16244;51.956;12.980;2023-08-20T01:36:59;23.00;99.90
29201;DHT22;16244;51.956;12.980;2023-08-20T01:39:26;23.00;99.90
29201;DHT22;16244;51.956;12.980;2023-08-20T01:41:54;23.00;99.90
29201;DHT22;16244;51.956;12.980;2023-08-20T01:44:21;22.90;99.90
29201;DHT22;16244;51.956;12.980;2023-08-20T01:46:50;23.00;99.90
29201;DHT22;16244;51.956;12.980;2023-08-20T01:49:17;23.00;99.90
29201;DHT22;16244;51.956;12.980;2023-08-20T01:51:45;22.90;99.90
29201;DHT22;16244;51.956;12.980;2023-08-20T01:54:12;22.80;99.90
29201;DHT22;16244;51.956;12.980;2023-08-20T01:56:39;22.80;99.90
29201;DHT22;16244;51.956;12.980;2023-08-20T01:59:07;22.80;99.90
29201;DHT22;16244;51.956;12.980;2023-08-20T02:01:34;22.80;99.90
29201;DHT22;16244;51.956;12.980;2023-08-20T02:04:03;22.70;99.90
29201;DHT22;16244;51.956;12.980;2023-08-20T02:06:31;22.70;99.90
29201;DHT22;16244;51.956;12.980;2023-08-20T02:08:58;22.60;99.90
29201;DHT22;16244;51.956;12.980;2023-08-20T02:11:26;22.50;99.90
29201;DHT22;16244;51.956;12.980;2023-08-20T02:13:53;22.50;99.90
29201;DHT22;16244;51.956;12.980;2023-08-20T02:16:21;22.50;99.90
29201;DHT22;16244;51.956;12.980;2023-08-20T02:18:48;22.60;99.90
29201;DHT22;16244;51.956;12.980;2023-08-20T02:21:17;22.50;99.90
29201;DHT22;16244;51.956;12.980;2023-08-20T02:23:45;22.50;99.90
29201;DHT22;16244;51.956;12.980;2023-08-20T02:26:12;22.40;99.90
29201;DHT22;16244;51.956;12.980;2023-08-20T02:28:41;22.40;99.90
29201;DHT22;16244;51.956;12.980;2023-08-20T02:31:08;22.40;99.90
29201;DHT22;16244;51.956;12.980;2023-08-20T02:33:36;22.40;99.90
29201;DHT22;16244;51.956;12.980;2023-08-20T02:36:04;22.30;99.90
29201;DHT22;16244;51.956;12.980;2023-08-20T02:38:33;22.30;99.90
29201;DHT22;16244;51.956;12.980;2023-08-20T02:41:01;22.20;99.90
29201;DHT22;16244;51.956;12.980;2023-08-20T02:43:29;22.20;99.90
29201;DHT22;16244;51.956;12.980;2023-08-20T02:45:56;22.20;99.90
29201;DHT22;16244;51.956;12.980;2023-08-20T02:48:24;22.20;99.90
29201;DHT22;16244;51.956;12.980;2023-08-20T02:50:53;22.20;99.90
29201;DHT22;16244;51.956;12.980;2023-08-20T02:53:21;22.20;99.90
29201;DHT22;16244;51.956;12.980;2023-08-20T02:55:50;22.20;99.90
29201;DHT22;16244;51.956;12.980;2023-08-20T02:58:17;22.20;99.90
29201;DHT22;16244;51.956;12.980;2023-08-20T03:00:45;22.20;99.90
29201;DHT22;16244;51.956;12.980;2023-08-20T03:03:12;22.20;99.90
29201;DHT22;16244;51.956;12.980;2023-08-20T03:05:40;22.10;99.90
29201;DHT22;16244;51.956;12.980;2023-08-20T03:08:07;22.10;99.90
29201;DHT22;16244;51.956;12.980;2023-08-20T03:10:36;22.00;99.90
29201;DHT22;16244;51.956;12.980;2023-08-20T03:13:05;22.00;99.90
29201;DHT22;16244;51.956;12.980;2023-08-20T03:15:32;22.00;99.90
29201;DHT22;16244;51.956;12.980;2023-08-20T03:18:00;22.00;99.90
29201;DHT22;16244;51.956;12.980;2023-08-20T03:20:27;21.90;99.90
29201;DHT22;16244;51.956;12.980;2023-08-20T03:22:57;21.90;99.90
29201;DHT22;16244;51.956;12.980;2023-08-20T03:25:25;21.90;99.90
29201;DHT22;16244;51.956;12.980;2023-08-20T03:27:52;21.90;99.90
29201;DHT22;16244;51.956;12.980;2023-08-20T03:30:21;21.90;99.90
29201;DHT22;16244;51.956;12.980;2023-08-20T03:32:49;21.90;99.90
29201;DHT22;16244;51.956;12.980;2023-08-20T03:35:16;21.90;99.90
29201;DHT22;16244;51.956;12.980;2023-08-20T03:37:44;21.80;99.90
29201;DHT22;16244;51.956;12.980;2023-08-20T03:40:11;21.80;99.90
29201;DHT22;16244;51.956;12.980;2023-08-20T03:42:39;21.70;99.90
29201;DHT22;16244;51.956;12.980;2023-08-20T03:45:07;21.70;99.90
29201;DHT22;16244;51.956;12.980;2023-08-20T03:47:36;21.70;99.90
29201;DHT22;16244;51.956;12.980;2023-08-20T03:50:04;21.70;99.90
29201;DHT22;16244;51.956;12.980;2023-08-20T03:52:32;21.60;99.90
29201;DHT22;16244;51.956;12.980;2023-08-20T03:54:59;21.60;99.90
29201;DHT22;16244;51.956;12.980;2023-08-20T03:57:27;21.60;99.90
29201;DHT22;16244;51.956;12.980;2023-08-20T03:59:54;21.60;99.90
29201;DHT22;16244;51.956;12.980;2023-08-20T04:02:22;21.60;99.90
29201;DHT22;16244;51.956;12.980;2023-08-20T04:04:51;21.60;99.90
29201;DHT22;16244;51.956;12.980;2023-08-20T04:07:18;21.60;99.90
29201;DHT22;16244;51.956;12.980;2023-08-20T04:09:46;21.60;99.90
29201;DHT22;16244;51.956;12.980;2023-08-20T04:12:14;21.60;99.90
29201;DHT22;16244;51.956;12.980;2023-08-20T04:14:41;21.50;99.90
29201;DHT22;16244;51.956;12.980;2023-08-20T04:17:09;21.50;99.90
29201;DHT22;16244;51.956;12.980;2023-08-20T04:19:36;21.50;99.90
29201;DHT22;16244;51.956;12.980;2023-08-20T04:22:05;21.40;99.90
29201;DHT22;16244;51.956;12.980;2023-08-20T04:24:33;21.50;99.90
29201;DHT22;16244;51.956;12.980;2023-08-20T04:27:00;21.50;99.90
29201;DHT22;16244;51.956;12.980;2023-08-20T04:29:27;21.50;99.90
29201;DHT22;16244;51.956;12.980;2023-08-20T04:31:55;21.50;99.90
29201;DHT22;16244;51.956;12.980;2023-08-20T04:34:22;21.50;99.90
29201;DHT22;16244;51.956;12.980;2023-08-20T04:36:50;21.40;99.90
29201;DHT22;16244;51.956;12.980;2023-08-20T04:39:19;21.40;99.90
29201;DHT22;16244;51.956;12.980;2023-08-20T04:41:46;21.40;99.90
29201;DHT22;16244;51.956;12.980;2023-08-20T04:44:14;21.40;99.90
29201;DHT22;16244;51.956;12.980;2023-08-20T04:46:42;21.40;99.90
29201;DHT22;16244;51.956;12.980;2023-08-20T04:49:10;21.40;99.90
29201;DHT22;16244;51.956;12.980;2023-08-20T04:51:38;21.40;99.90
29201;DHT22;16244;51.956;12.980;2023-08-20T04:54:05;21.40;99.90
29201;DHT22;16244;51.956;12.980;2023-08-20T04:56:34;21.40;99.90
29201;DHT22;16244;51.956;12.980;2023-08-20T04:59:02;21.40;99.90
29201;DHT22;16244;51.956;12.980;2023-08-20T05:01:30;21.50;99.90
29201;DHT22;16244;51.956;12.980;2023-08-20T05:03:57;21.50;99.90
29201;DHT22;16244;51.956;12.980;2023-08-20T05:06:24;21.50;99.90
29201;DHT22;16244;51.956;12.980;2023-08-20T05:08:52;21.50;99.90
29201;DHT22;16244;51.956;12.980;2023-08-20T05:11:19;21.50;99.90
29201;DHT22;16244;51.956;12.980;2023-08-20T05:13:49;21.50;99.90
29201;DHT22;16244;51.956;12.980;2023-08-20T05:16:17;21.50;99.90
29201;DHT22;16244;51.956;12.980;2023-08-20T05:18:44;21.60;99.90
29201;DHT22;16244;51.956;12.980;2023-08-20T05:21:13;21.60;99.90
29201;DHT22;16244;51.956;12.980;2023-08-20T05:23:40;21.50;99.90
29201;DHT22;16244;51.956;12.980;2023-08-20T05:26:08;21.60;99.90
29201;DHT22;16244;51.956;12.980;2023-08-20T05:28:36;21.60;99.90
29201;DHT22;16244;51.956;12.980;2023-08-20T05:31:04;21.70;99.90
29201;DHT22;16244;51.956;12.980;2023-08-20T05:33:32;21.80;99.90
29201;DHT22;16244;51.956;12.980;2023-08-20T05:35:59;21.80;99.90
29201;DHT22;16244;51.956;12.980;2023-08-20T05:38:27;21.80;99.90
29201;DHT22;16244;51.956;12.980;2023-08-20T05:40:55;21.90;99.90
29201;DHT22;16244;51.956;12.980;2023-08-20T05:43:22;22.00;99.90
29201;DHT22;16244;51.956;12.980;2023-08-20T05:45:50;22.10;99.90
29201;DHT22;16244;51.956;12.980;2023-08-20T05:48:19;22.10;99.90
29201;DHT22;16244;51.956;12.980;2023-08-20T05:50:46;22.10;99.90
29201;DHT22;16244;51.956;12.980;2023-08-20T05:53:14;22.20;99.90
29201;DHT22;16244;51.956;12.980;2023-08-20T05:55:41;22.10;99.90
29201;DHT22;16244;51.956;12.980;2023-08-20T05:58:09;22.00;99.90
29201;DHT22;16244;51.956;12.980;2023-08-20T06:00:36;21.90;99.90
29201;DHT22;16244;51.956;12.980;2023-08-20T06:03:04;21.90;99.90
29201;DHT22;16244;51.956;12.980;2023-08-20T06:05:35;21.90;99.90
29201;DHT22;16244;51.956;12.980;2023-08-20T06:08:03;22.00;99.90
29201;DHT22;16244;51.956;12.980;2023-08-20T06:10:31;22.00;99.90
29201;DHT22;16244;51.956;12.980;2023-08-20T06:12:58;22.10;99.90
29201;DHT22;16244;51.956;12.980;2023-08-20T06:15:26;22.00;99.90
29201;DHT22;16244;51.956;12.980;2023-08-20T06:17:53;22.10;99.90
29201;DHT22;16244;51.956;12.980;2023-08-20T06:20:21;22.10;99.90
29201;DHT22;16244;51.956;12.980;2023-08-20T06:22:49;22.10;99.90
29201;DHT22;16244;51.956;12.980;2023-08-20T06:25:17;22.30;99.90
29201;DHT22;16244;51.956;12.980;2023-08-20T06:27:44;22.30;99.90
29201;DHT22;16244;51.956;12.980;2023-08-20T06:30:12;22.50;99.90
29201;DHT22;16244;51.956;12.980;2023-08-20T06:32:40;22.50;99.90
29201;DHT22;16244;51.956;12.980;2023-08-20T06:35:08;22.50;99.90
29201;DHT22;16244;51.956;12.980;2023-08-20T06:37:36;22.60;99.90
29201;DHT22;16244;51.956;12.980;2023-08-20T06:40:06;22.50;99.90
29201;DHT22;16244;51.956;12.980;2023-08-20T06:42:33;22.60;99.90
29201;DHT22;16244;51.956;12.980;2023-08-20T06:45:01;22.60;99.90
29201;DHT22;16244;51.956;12.980;2023-08-20T06:47:28;22.70;99.90
29201;DHT22;16244;51.956;12.980;2023-08-20T06:49:56;22.80;99.90
29201;DHT22;16244;51.956;12.980;2023-08-20T06:52:23;23.00;99.90
29201;DHT22;16244;51.956;12.980;2023-08-20T06:54:51;23.20;99.90
29201;DHT22;16244;51.956;12.980;2023-08-20T06:57:20;23.30;99.90
29201;DHT22;16244;51.956;12.980;2023-08-20T06:59:48;23.30;98.90
29201;DHT22;16244;51.956;12.980;2023-08-20T07:02:15;23.40;98.80
29201;DHT22;16244;51.956;12.980;2023-08-20T07:04:43;23.30;97.40
29201;DHT22;16244;51.956;12.980;2023-08-20T07:07:11;23.30;98.50
29201;DHT22;16244;51.956;12.980;2023-08-20T07:09:40;23.20;99.20
29201;DHT22;16244;51.956;12.980;2023-08-20T07:12:08;23.40;99.60
29201;DHT22;16244;51.956;12.980;2023-08-20T07:14:38;23.30;97.50
29201;DHT22;16244;51.956;12.980;2023-08-20T07:17:05;23.30;97.30
29201;DHT22;16244;51.956;12.980;2023-08-20T07:19:33;23.50;96.50
29201;DHT22;16244;51.956;12.980;2023-08-20T07:22:00;23.70;95.50
29201;DHT22;16244;51.956;12.980;2023-08-20T07:24:28;23.90;94.50
29201;DHT22;16244;51.956;12.980;2023-08-20T07:26:56;24.00;93.80
29201;DHT22;16244;51.956;12.980;2023-08-20T07:29:27;24.20;94.50
29201;DHT22;16244;51.956;12.980;2023-08-20T07:31:57;24.30;93.20
29201;DHT22;16244;51.956;12.980;2023-08-20T07:34:29;24.30;92.70
29201;DHT22;16244;51.956;12.980;2023-08-20T07:36:59;24.30;92.10
29201;DHT22;16244;51.956;12.980;2023-08-20T07:39:27;24.30;91.20
29201;DHT22;16244;51.956;12.980;2023-08-20T07:41:55;24.00;92.00
29201;DHT22;16244;51.956;12.980;2023-08-20T07:44:22;23.80;92.10
29201;DHT22;16244;51.956;12.980;2023-08-20T07:46:50;23.60;93.30
29201;DHT22;16244;51.956;12.980;2023-08-20T07:49:18;23.60;94.40
29201;DHT22;16244;51.956;12.980;2023-08-20T07:51:46;23.40;93.20
29201;DHT22;16244;51.956;12.980;2023-08-20T07:54:14;23.50;94.00
29201;DHT22;16244;51.956;12.980;2023-08-20T07:56:42;23.60;93.50
29201;DHT22;16244;51.956;12.980;2023-08-20T07:59:09;23.70;93.20
29201;DHT22;16244;51.956;12.980;2023-08-20T08:01:37;23.80;93.10
29201;DHT22;16244;51.956;12.980;2023-08-20T08:04:05;23.70;93.10
29201;DHT22;16244;51.956;12.980;2023-08-20T08:06:34;23.50;93.90
29201;DHT22;16244;51.956;12.980;2023-08-20T08:09:19;23.50;94.60
29201;DHT22;16244;51.956;12.980;2023-08-20T08:11:48;23.50;95.50
29201;DHT22;16244;51.956;12.980;2023-08-20T08:14:16;23.60;95.50
29201;DHT22;16244;51.956;12.980;2023-08-20T08:16:45;23.70;95.20
29201;DHT22;16244;51.956;12.980;2023-08-20T08:19:12;23.80;95.80
29201;DHT22;16244;51.956;12.980;2023-08-20T08:21:43;23.80;94.60
29201;DHT22;16244;51.956;12.980;2023-08-20T08:24:11;23.80;94.70
29201;DHT22;16244;51.956;12.980;2023-08-20T08:26:40;24.00;94.90
29201;DHT22;16244;51.956;12.980;2023-08-20T08:29:08;24.50;93.90
29201;DHT22;16244;51.956;12.980;2023-08-20T08:31:35;25.00;92.20
29201;DHT22;16244;51.956;12.980;2023-08-20T08:34:03;25.70;90.30
29201;DHT22;16244;51.956;12.980;2023-08-20T08:36:32;26.40;89.90
29201;DHT22;16244;51.956;12.980;2023-08-20T08:39:01;26.80;80.80
29201;DHT22;16244;51.956;12.980;2023-08-20T08:41:29;27.10;78.50
29201;DHT22;16244;51.956;12.980;2023-08-20T08:43:57;27.30;73.00
29201;DHT22;16244;51.956;12.980;2023-08-20T08:46:25;27.30;69.60
29201;DHT22;16244;51.956;12.980;2023-08-20T08:48:54;27.00;73.90
29201;DHT22;16244;51.956;12.980;2023-08-20T08:51:24;26.80;73.80
29201;DHT22;16244;51.956;12.980;2023-08-20T08:53:53;26.30;76.20
29201;DHT22;16244;51.956;12.980;2023-08-20T08:56:22;26.00;79.50
29201;DHT22;16244;51.956;12.980;2023-08-20T08:58:50;25.90;80.40
29201;DHT22;16244;51.956;12.980;2023-08-20T09:01:17;26.10;84.80
29201;DHT22;16244;51.956;12.980;2023-08-20T09:03:45;26.70;77.90
29201;DHT22;16244;51.956;12.980;2023-08-20T09:06:13;27.30;73.30
29201;DHT22;16244;51.956;12.980;2023-08-20T09:08:41;27.90;66.30
29201;DHT22;16244;51.956;12.980;2023-08-20T09:11:08;28.30;68.40
29201;DHT22;16244;51.956;12.980;2023-08-20T09:13:38;28.50;68.30
29201;DHT22;16244;51.956;12.980;2023-08-20T09:16:07;29.10;59.30
29201;DHT22;16244;51.956;12.980;2023-08-20T09:18:38;29.30;66.40
29201;DHT22;16244;51.956;12.980;2023-08-20T09:21:07;29.40;57.20
29201;DHT22;16244;51.956;12.980;2023-08-20T09:23:34;29.60;58.50
29201;DHT22;16244;51.956;12.980;2023-08-20T09:26:03;29.80;52.70
29201;DHT22;16244;51.956;12.980;2023-08-20T09:28:42;29.80;54.70
29201;DHT22;16244;51.956;12.980;2023-08-20T09:31:10;29.70;53.60
29201;DHT22;16244;51.956;12.980;2023-08-20T09:33:49;29.90;55.30
29201;DHT22;16244;51.956;12.980;2023-08-20T09:36:16;30.10;52.60
29201;DHT22;16244;51.956;12.980;2023-08-20T09:38:44;30.40;55.00
29201;DHT22;16244;51.956;12.980;2023-08-20T09:41:12;30.50;55.30
29201;DHT22;16244;51.956;12.980;2023-08-20T09:43:42;31.30;54.20
29201;DHT22;16244;51.956;12.980;2023-08-20T09:46:14;31.90;51.70
29201;DHT22;16244;51.956;12.980;2023-08-20T09:48:46;32.10;47.10
29201;DHT22;16244;51.956;12.980;2023-08-20T09:51:21;31.80;48.20
29201;DHT22;16244;51.956;12.980;2023-08-20T09:53:55;31.60;48.00
29201;DHT22;16244;51.956;12.980;2023-08-20T09:56:28;31.70;48.70
29201;DHT22;16244;51.956;12.980;2023-08-20T09:58:57;31.50;48.30
29201;DHT22;16244;51.956;12.980;2023-08-20T10:01:25;31.20;48.50
29201;DHT22;16244;51.956;12.980;2023-08-20T10:03:53;30.80;49.30
29201;DHT22;16244;51.956;12.980;2023-08-20T10:06:21;30.80;50.10
29201;DHT22;16244;51.956;12.980;2023-08-20T10:08:50;31.00;48.50
29201;DHT22;16244;51.956;12.980;2023-08-20T10:11:18;31.30;51.20
29201;DHT22;16244;51.956;12.980;2023-08-20T10:13:45;31.50;50.30
29201;DHT22;16244;51.956;12.980;2023-08-20T10:16:17;31.80;47.80
29201;DHT22;16244;51.956;12.980;2023-08-20T10:18:47;32.40;49.40
29201;DHT22;16244;51.956;12.980;2023-08-20T10:21:15;32.70;49.70
29201;DHT22;16244;51.956;12.980;2023-08-20T10:23:48;32.50;46.70
29201;DHT22;16244;51.956;12.980;2023-08-20T10:26:16;32.60;46.70
29201;DHT22;16244;51.956;12.980;2023-08-20T10:28:45;32.80;47.20
29201;DHT22;16244;51.956;12.980;2023-08-20T10:31:13;33.10;47.20
29201;DHT22;16244;51.956;12.980;2023-08-20T10:33:50;33.40;46.00
29201;DHT22;16244;51.956;12.980;2023-08-20T10:36:22;33.70;45.70
29201;DHT22;16244;51.956;12.980;2023-08-20T10:38:55;33.80;44.60
29201;DHT22;16244;51.956;12.980;2023-08-20T10:41:27;34.10;47.40
29201;DHT22;16244;51.956;12.980;2023-08-20T10:43:57;34.20;45.10
29201;DHT22;16244;51.956;12.980;2023-08-20T10:46:26;34.30;46.10
29201;DHT22;16244;51.956;12.980;2023-08-20T10:48:59;34.20;43.30
29201;DHT22;16244;51.956;12.980;2023-08-20T10:51:28;33.20;44.20
29201;DHT22;16244;51.956;12.980;2023-08-20T10:54:04;33.10;45.50
29201;DHT22;16244;51.956;12.980;2023-08-20T10:56:40;33.40;45.80
29201;DHT22;16244;51.956;12.980;2023-08-20T10:59:09;33.10;44.80
29201;DHT22;16244;51.956;12.980;2023-08-20T11:01:37;33.50;43.40
29201;DHT22;16244;51.956;12.980;2023-08-20T11:04:07;33.80;44.00
29201;DHT22;16244;51.956;12.980;2023-08-20T11:06:36;33.60;44.50
29201;DHT22;16244;51.956;12.980;2023-08-20T11:09:05;33.70;45.40
29201;DHT22;16244;51.956;12.980;2023-08-20T11:11:32;33.10;43.10
29201;DHT22;16244;51.956;12.980;2023-08-20T11:14:05;32.50;45.70
29201;DHT22;16244;51.956;12.980;2023-08-20T11:16:34;32.40;45.60
29201;DHT22;16244;51.956;12.980;2023-08-20T11:19:02;32.80;46.10
29201;DHT22;16244;51.956;12.980;2023-08-20T11:21:33;33.00;44.40
29201;DHT22;16244;51.956;12.980;2023-08-20T11:24:01;33.30;46.60
29201;DHT22;16244;51.956;12.980;2023-08-20T11:26:29;33.60;42.90
29201;DHT22;16244;51.956;12.980;2023-08-20T11:28:57;33.30;45.60
29201;DHT22;16244;51.956;12.980;2023-08-20T11:31:25;33.20;43.10
29201;DHT22;16244;51.956;12.980;2023-08-20T11:33:53;32.80;43.50
29201;DHT22;16244;51.956;12.980;2023-08-20T11:36:20;32.00;46.80
29201;DHT22;16244;51.956;12.980;2023-08-20T11:38:51;31.80;48.80
29201;DHT22;16244;51.956;12.980;2023-08-20T11:41:20;31.70;48.70
29201;DHT22;16244;51.956;12.980;2023-08-20T11:43:47;32.10;48.90
29201;DHT22;16244;51.956;12.980;2023-08-20T11:46:16;32.10;47.40
29201;DHT22;16244;51.956;12.980;2023-08-20T11:48:58;31.90;46.70
29201;DHT22;16244;51.956;12.980;2023-08-20T11:51:27;32.10;45.50
29201;DHT22;16244;51.956;12.980;2023-08-20T11:53:55;32.00;49.00
29201;DHT22;16244;51.956;12.980;2023-08-20T11:56:23;31.70;47.90
29201;DHT22;16244;51.956;12.980;2023-08-20T11:58:50;31.90;48.40
29201;DHT22;16244;51.956;12.980;2023-08-20T12:01:18;31.50;49.60
29201;DHT22;16244;51.956;12.980;2023-08-20T12:03:46;31.20;56.80
29201;DHT22;16244;51.956;12.980;2023-08-20T12:06:18;31.00;51.80
29201;DHT22;16244;51.956;12.980;2023-08-20T12:08:45;31.00;54.50
29201;DHT22;16244;51.956;12.980;2023-08-20T12:11:14;30.90;56.10
29201;DHT22;16244;51.956;12.980;2023-08-20T12:13:42;31.00;56.20
29201;DHT22;16244;51.956;12.980;2023-08-20T12:16:09;31.10;52.70
29201;DHT22;16244;51.956;12.980;2023-08-20T12:18:37;31.20;49.00
29201;DHT22;16244;51.956;12.980;2023-08-20T12:21:05;30.70;51.40
29201;DHT22;16244;51.956;12.980;2023-08-20T12:23:33;30.50;55.20
29201;DHT22;16244;51.956;12.980;2023-08-20T12:26:00;30.60;51.20
29201;DHT22;16244;51.956;12.980;2023-08-20T12:28:29;30.20;50.70
29201;DHT22;16244;51.956;12.980;2023-08-20T12:30:57;29.80;52.40
29201;DHT22;16244;51.956;12.980;2023-08-20T12:33:24;29.60;56.10
29201;DHT22;16244;51.956;12.980;2023-08-20T12:35:53;29.60;64.80
29201;DHT22;16244;51.956;12.980;2023-08-20T12:38:21;29.80;55.80
29201;DHT22;16244;51.956;12.980;2023-08-20T12:40:49;29.70;64.10
29201;DHT22;16244;51.956;12.980;2023-08-20T12:43:16;29.70;61.20
29201;DHT22;16244;51.956;12.980;2023-08-20T12:45:45;29.60;59.40
29201;DHT22;16244;51.956;12.980;2023-08-20T12:48:12;29.70;60.70
29201;DHT22;16244;51.956;12.980;2023-08-20T12:50:41;29.80;58.90
29201;DHT22;16244;51.956;12.980;2023-08-20T12:53:08;29.80;58.90
29201;DHT22;16244;51.956;12.980;2023-08-20T12:55:36;29.70;54.00
29201;DHT22;16244;51.956;12.980;2023-08-20T12:58:04;29.50;62.70
29201;DHT22;16244;51.956;12.980;2023-08-20T13:00:31;29.40;55.70
29201;DHT22;16244;51.956;12.980;2023-08-20T13:03:01;29.30;56.00
29201;DHT22;16244;51.956;12.980;2023-08-20T13:05:29;29.10;57.40
29201;DHT22;16244;51.956;12.980;2023-08-20T13:07:57;29.10;65.90
29201;DHT22;16244;51.956;12.980;2023-08-20T13:10:25;29.10;61.00
29201;DHT22;16244;51.956;12.980;2023-08-20T13:12:53;29.20;61.90
29201;DHT22;16244;51.956;12.980;2023-08-20T13:15:22;29.20;59.90
29201;DHT22;16244;51.956;12.980;2023-08-20T13:17:51;29.30;61.60
29201;DHT22;16244;51.956;12.980;2023-08-20T13:20:20;29.40;62.40
29201;DHT22;16244;51.956;12.980;2023-08-20T13:22:50;29.30;55.10
29201;DHT22;16244;51.956;12.980;2023-08-20T13:25:18;29.20;57.80
29201;DHT22;16244;51.956;12.980;2023-08-20T13:27:47;29.20;57.10
29201;DHT22;16244;51.956;12.980;2023-08-20T13:30:16;29.30;57.20
29201;DHT22;16244;51.956;12.980;2023-08-20T13:32:44;29.40;54.30
29201;DHT22;16244;51.956;12.980;2023-08-20T13:35:11;29.30;54.40
29201;DHT22;16244;51.956;12.980;2023-08-20T13:37:41;29.40;54.50
29201;DHT22;16244;51.956;12.980;2023-08-20T13:40:10;29.30;59.30
29201;DHT22;16244;51.956;12.980;2023-08-20T13:42:37;29.40;61.20
29201;DHT22;16244;51.956;12.980;2023-08-20T13:45:06;29.30;55.70
29201;DHT22;16244;51.956;12.980;2023-08-20T13:47:33;29.30;62.60
29201;DHT22;16244;51.956;12.980;2023-08-20T13:50:01;29.40;62.10
29201;DHT22;16244;51.956;12.980;2023-08-20T13:52:30;29.50;62.70
29201;DHT22;16244;51.956;12.980;2023-08-20T13:54:59;29.50;58.90
29201;DHT22;16244;51.956;12.980;2023-08-20T13:57:27;29.60;55.20
29201;DHT22;16244;51.956;12.980;2023-08-20T13:59:54;29.70;55.30
29201;DHT22;16244;51.956;12.980;2023-08-20T14:02:21;29.60;54.10
29201;DHT22;16244;51.956;12.980;2023-08-20T14:04:49;29.60;52.80
29201;DHT22;16244;51.956;12.980;2023-08-20T14:07:17;29.70;55.90
29201;DHT22;16244;51.956;12.980;2023-08-20T14:09:45;29.90;52.70
29201;DHT22;16244;51.956;12.980;2023-08-20T14:12:13;30.00;50.60
29201;DHT22;16244;51.956;12.980;2023-08-20T14:14:41;30.30;50.70
29201;DHT22;16244;51.956;12.980;2023-08-20T14:17:09;30.70;50.20
29201;DHT22;16244;51.956;12.980;2023-08-20T14:19:36;31.10;48.00
29201;DHT22;16244;51.956;12.980;2023-08-20T14:22:04;31.00;46.60
29201;DHT22;16244;51.956;12.980;2023-08-20T14:24:31;31.00;49.20
29201;DHT22;16244;51.956;12.980;2023-08-20T14:26:59;31.10;46.80
29201;DHT22;16244;51.956;12.980;2023-08-20T14:29:28;31.00;46.00
29201;DHT22;16244;51.956;12.980;2023-08-20T14:31:55;31.00;46.60
29201;DHT22;16244;51.956;12.980;2023-08-20T14:34:23;31.10;45.70
29201;DHT22;16244;51.956;12.980;2023-08-20T14:36:51;31.10;48.20
29201;DHT22;16244;51.956;12.980;2023-08-20T14:39:18;31.20;45.80
29201;DHT22;16244;51.956;12.980;2023-08-20T14:41:46;31.30;48.10
29201;DHT22;16244;51.956;12.980;2023-08-20T14:44:13;31.50;45.50
29201;DHT22;16244;51.956;12.980;2023-08-20T14:46:42;31.40;44.50
29201;DHT22;16244;51.956;12.980;2023-08-20T14:49:09;31.40;45.50
29201;DHT22;16244;51.956;12.980;2023-08-20T14:51:36;31.40;45.70
29201;DHT22;16244;51.956;12.980;2023-08-20T14:54:04;31.40;45.00
29201;DHT22;16244;51.956;12.980;2023-08-20T14:56:32;31.50;44.10
29201;DHT22;16244;51.956;12.980;2023-08-20T14:58:59;31.40;45.40
29201;DHT22;16244;51.956;12.980;2023-08-20T15:01:27;31.20;46.20
29201;DHT22;16244;51.956;12.980;2023-08-20T15:03:56;31.60;45.30
29201;DHT22;16244;51.956;12.980;2023-08-20T15:06:24;31.60;45.30
29201;DHT22;16244;51.956;12.980;2023-08-20T15:08:52;31.60;44.60
29201;DHT22;16244;51.956;12.980;2023-08-20T15:11:20;31.40;44.70
29201;DHT22;16244;51.956;12.980;2023-08-20T15:13:47;31.40;44.90
29201;DHT22;16244;51.956;12.980;2023-08-20T15:16:15;31.50;43.60
29201;DHT22;16244;51.956;12.980;2023-08-20T15:18:42;31.30;44.00
29201;DHT22;16244;51.956;12.980;2023-08-20T15:21:11;31.00;45.00
29201;DHT22;16244;51.956;12.980;2023-08-20T15:23:39;30.80;46.60